createdAt,value
2023-05-23T00:00:58.609Z,20.43
2023-05-23T00:06:04.873Z,20.36
2023-05-23T00:11:10.644Z,20.28
2023-05-23T00:16:16.579Z,20.12
2023-05-23T00:21:22.395Z,20.11
2023-05-23T00:26:30.212Z,20.14
2023-05-23T00:31:35.919Z,20.15
2023-05-23T00:36:43.517Z,20.12
2023-05-23T00:41:52.150Z,20.11
2023-05-23T00:46:59.459Z,20.08
2023-05-23T00:52:05.670Z,20.07
2023-05-23T00:57:11.520Z,20.03
2023-05-23T01:02:17.150Z,20.01
2023-05-23T01:07:23.124Z,19.95
2023-05-23T01:12:51.313Z,19.85
2023-05-23T01:18:04.385Z,19.63
2023-05-23T01:23:29.593Z,19.52
2023-05-23T01:28:38.822Z,19.29
2023-05-23T01:33:47.328Z,19.03
2023-05-23T01:38:52.927Z,18.89
2023-05-23T01:43:58.704Z,18.80
2023-05-23T01:49:07.031Z,18.75
2023-05-23T01:54:14.689Z,18.62
2023-05-23T01:59:20.472Z,18.49
2023-05-23T02:04:26.594Z,18.45
2023-05-23T02:09:32.262Z,18.37
2023-05-23T02:14:37.896Z,18.30
2023-05-23T02:19:43.454Z,18.21
2023-05-23T02:24:51.669Z,18.18
2023-05-23T02:29:57.338Z,18.07
2023-05-23T02:35:03.311Z,18.01
2023-05-23T02:40:10.381Z,17.91
2023-05-23T02:45:16.153Z,17.89
2023-05-23T02:50:21.920Z,17.77
2023-05-23T02:55:27.902Z,17.76
2023-05-23T03:00:33.797Z,17.67
2023-05-23T03:05:39.839Z,17.67
2023-05-23T03:10:45.617Z,17.63
2023-05-23T03:15:51.672Z,17.62
2023-05-23T03:20:57.550Z,17.59
2023-05-23T03:26:04.301Z,17.57
2023-05-23T03:31:10.214Z,17.56
2023-05-23T03:36:16.086Z,17.50
2023-05-23T03:41:21.944Z,17.57
2023-05-23T03:46:28.547Z,17.60
2023-05-23T03:51:35.029Z,17.58
2023-05-23T03:56:41.135Z,17.60
2023-05-23T04:01:47.389Z,17.63
2023-05-23T04:06:53.608Z,18.74
2023-05-23T04:12:00.086Z,18.12
2023-05-23T04:17:06.364Z,17.95
2023-05-23T04:22:12.008Z,17.92
2023-05-23T04:27:17.966Z,17.86
2023-05-23T04:32:24.270Z,17.90
2023-05-23T04:37:32.877Z,17.90
2023-05-23T04:42:38.974Z,17.95
2023-05-23T04:47:46.918Z,17.96
2023-05-23T04:52:54.213Z,18.03
2023-05-23T04:58:01.302Z,17.98
2023-05-23T05:03:09.097Z,18.02
2023-05-23T05:08:18.048Z,18.14
2023-05-23T05:13:24.228Z,18.22
2023-05-23T05:18:32.300Z,18.29
2023-05-23T05:23:38.457Z,18.47
2023-05-23T05:28:45.842Z,18.63
2023-05-23T05:33:52.127Z,18.86
2023-05-23T05:38:57.789Z,19.09
2023-05-23T05:44:04.173Z,19.33
2023-05-23T05:49:11.727Z,19.65
2023-05-23T05:54:19.199Z,19.87
2023-05-23T05:59:25.165Z,20.02
2023-05-23T06:04:31.222Z,20.14
2023-05-23T06:09:37.233Z,20.22
2023-05-23T06:14:42.905Z,20.21
2023-05-23T06:19:48.861Z,20.16
2023-05-23T06:24:54.971Z,20.13
2023-05-23T06:30:02.144Z,20.06
2023-05-23T06:35:08.902Z,20.04
2023-05-23T06:40:15.062Z,20.03
2023-05-23T06:45:20.780Z,20.17
2023-05-23T06:50:26.345Z,20.35
2023-05-23T06:55:34.077Z,20.47
2023-05-23T07:00:40.399Z,20.43
2023-05-23T07:05:47.914Z,20.41
2023-05-23T07:10:54.957Z,20.47
2023-05-23T07:16:02.497Z,20.49
2023-05-23T07:21:09.254Z,20.55
2023-05-23T07:26:15.561Z,20.59
2023-05-23T07:31:23.046Z,20.71
2023-05-23T07:36:32.156Z,20.59
2023-05-23T07:41:38.274Z,20.62
2023-05-23T07:46:44.058Z,20.59
2023-05-23T07:51:49.920Z,20.61
2023-05-23T07:56:56.397Z,20.55
2023-05-23T08:02:02.921Z,20.59
2023-05-23T08:07:11.206Z,20.73
2023-05-23T08:12:27.511Z,20.71
2023-05-23T08:17:36.545Z,20.71
2023-05-23T08:22:42.779Z,20.88
2023-05-23T08:27:48.834Z,20.86
2023-05-23T08:32:58.068Z,20.91
2023-05-23T08:38:07.921Z,20.93
2023-05-23T08:43:15.162Z,21.01
2023-05-23T08:48:22.147Z,21.11
2023-05-23T08:53:30.300Z,21.08
2023-05-23T08:58:43.288Z,21.22
2023-05-23T09:03:51.113Z,21.33
2023-05-23T09:09:05.008Z,21.44
2023-05-23T09:14:10.862Z,21.69
2023-05-23T09:19:17.067Z,21.71
2023-05-23T09:24:24.566Z,21.73
2023-05-23T09:29:30.242Z,21.76
2023-05-23T09:34:36.262Z,22.00
2023-05-23T09:39:46.599Z,22.14
2023-05-23T09:44:53.169Z,22.30
2023-05-23T09:49:59.097Z,22.36
2023-05-23T09:55:05.417Z,22.49
2023-05-23T10:00:13.725Z,22.70
2023-05-23T10:05:21.666Z,23.00
2023-05-23T10:10:29.801Z,23.19
2023-05-23T10:15:38.396Z,23.40
2023-05-23T10:20:47.022Z,23.31
2023-05-23T10:25:53.249Z,23.54
2023-05-23T10:31:00.196Z,23.46
2023-05-23T10:36:18.087Z,23.64
2023-05-23T10:41:46.497Z,23.84
2023-05-23T10:47:01.918Z,23.79
2023-05-23T10:52:08.563Z,24.00
2023-05-23T10:57:18.993Z,23.99
2023-05-23T11:02:29.752Z,23.93
2023-05-23T11:07:36.452Z,24.07
2023-05-23T11:12:46.289Z,24.15
2023-05-23T11:17:56.746Z,24.05
2023-05-23T11:23:04.553Z,24.13
2023-05-23T11:28:11.139Z,24.20
2023-05-23T11:33:18.523Z,24.16
2023-05-23T11:38:24.338Z,24.22
2023-05-23T11:43:29.970Z,24.20
2023-05-23T11:48:36.529Z,24.22
2023-05-23T11:53:42.320Z,24.25
2023-05-23T11:58:48.058Z,24.29
2023-05-23T12:03:53.948Z,24.53
2023-05-23T12:09:01.259Z,24.72
2023-05-23T12:14:07.905Z,24.78
2023-05-23T12:19:13.925Z,24.80
2023-05-23T12:24:22.130Z,24.93
2023-05-23T12:29:39.274Z,25.09
2023-05-23T12:34:44.870Z,25.29
2023-05-23T12:39:50.610Z,25.43
2023-05-23T12:44:56.839Z,25.20
2023-05-23T12:50:02.468Z,25.00
2023-05-23T12:55:10.006Z,25.31
2023-05-23T13:00:36.923Z,25.37
2023-05-23T13:05:42.813Z,25.24
2023-05-23T13:10:48.556Z,25.49
2023-05-23T13:15:54.328Z,25.70
2023-05-23T13:21:00.512Z,25.79
2023-05-23T13:26:06.720Z,25.93
2023-05-23T13:31:12.501Z,25.87
2023-05-23T13:36:18.129Z,25.65
2023-05-23T13:41:23.692Z,25.69
2023-05-23T13:46:29.587Z,25.87
2023-05-23T13:51:36.974Z,25.80
2023-05-23T13:56:42.641Z,25.48
2023-05-23T14:01:48.930Z,25.57
2023-05-23T14:06:55.041Z,25.37
2023-05-23T14:12:00.925Z,25.40
2023-05-23T14:17:06.945Z,25.18
2023-05-23T14:22:12.730Z,25.00
2023-05-23T14:27:19.233Z,24.72
2023-05-23T14:32:25.221Z,24.49
2023-05-23T14:37:31.121Z,24.43
2023-05-23T14:42:37.135Z,24.39
2023-05-23T14:47:43.085Z,24.49
2023-05-23T14:52:48.878Z,24.59
2023-05-23T14:57:54.727Z,24.59
2023-05-23T15:03:00.525Z,24.63
2023-05-23T15:08:06.086Z,24.49
2023-05-23T15:13:11.998Z,24.18
2023-05-23T15:18:31.702Z,24.22
2023-05-23T15:23:25.236Z,24.10
2023-05-23T15:28:31.409Z,23.92
2023-05-23T15:33:37.078Z,23.92
2023-05-23T15:38:43.890Z,23.86
2023-05-23T15:43:49.590Z,23.90
2023-05-23T15:48:56.937Z,23.85
2023-05-23T15:54:02.620Z,24.08
2023-05-23T15:59:08.275Z,24.11
2023-05-23T16:04:14.024Z,24.47
2023-05-23T16:09:19.839Z,24.30
2023-05-23T16:14:25.898Z,24.16
2023-05-23T16:19:31.694Z,23.18
2023-05-23T16:24:37.436Z,23.70
2023-05-23T16:29:43.114Z,23.60
2023-05-23T16:34:52.916Z,23.41
2023-05-23T16:39:56.255Z,24.01
2023-05-23T16:45:02.055Z,23.41
2023-05-23T16:50:09.290Z,23.16
2023-05-23T16:55:14.992Z,23.02
2023-05-23T17:00:21.407Z,22.66
2023-05-23T17:05:27.179Z,21.55
2023-05-23T17:10:32.951Z,20.98
2023-05-23T17:15:38.650Z,20.37
2023-05-23T17:20:44.375Z,19.97
2023-05-23T17:25:50.047Z,19.83
2023-05-23T17:30:55.720Z,19.64
2023-05-23T17:36:01.379Z,19.38
2023-05-23T17:41:07.266Z,18.99
2023-05-23T17:46:12.979Z,18.97
2023-05-23T17:51:18.917Z,18.61
2023-05-23T17:56:25.385Z,18.35
2023-05-23T18:01:31.112Z,18.04
2023-05-23T18:06:36.821Z,17.99
2023-05-23T18:11:43.133Z,17.61
2023-05-23T18:16:49.017Z,17.58
2023-05-23T18:21:54.869Z,17.42
2023-05-23T18:27:01.056Z,17.41
2023-05-23T18:32:07.345Z,17.32
2023-05-23T18:37:13.073Z,17.19
2023-05-23T18:42:18.772Z,17.05
2023-05-23T18:47:24.615Z,16.77
2023-05-23T18:52:31.102Z,16.74
2023-05-23T18:57:37.107Z,16.49
2023-05-23T19:02:44.625Z,16.26
2023-05-23T19:07:50.814Z,16.22
2023-05-23T19:12:56.636Z,15.94
2023-05-23T19:18:02.466Z,15.95
2023-05-23T19:23:08.337Z,15.91
2023-05-23T19:28:15.482Z,15.80
2023-05-23T19:33:22.338Z,15.65
2023-05-23T19:38:27.969Z,15.26
2023-05-23T19:43:33.603Z,15.24
2023-05-23T19:48:39.164Z,15.05
2023-05-23T19:53:44.832Z,14.94
2023-05-23T19:58:50.404Z,15.08
2023-05-23T20:03:56.025Z,15.01
2023-05-23T20:09:02.160Z,14.89
2023-05-23T20:14:08.214Z,14.80
2023-05-23T20:19:14.535Z,14.66
2023-05-23T20:24:20.452Z,14.69
2023-05-23T20:29:26.428Z,14.57
2023-05-23T20:34:32.345Z,14.46
2023-05-23T20:39:38.848Z,14.22
2023-05-23T20:44:44.984Z,14.26
2023-05-23T20:49:50.669Z,14.14
2023-05-23T20:54:56.333Z,14.16
2023-05-23T21:00:02.068Z,14.15
2023-05-23T21:05:09.046Z,14.23
2023-05-23T21:10:15.329Z,14.16
2023-05-23T21:15:21.470Z,13.99
2023-05-23T21:20:29.198Z,13.95
2023-05-23T21:25:35.044Z,13.82
2023-05-23T21:30:40.877Z,13.52
2023-05-23T21:35:46.792Z,13.43
2023-05-23T21:40:52.360Z,13.48
2023-05-23T21:45:58.157Z,13.39
2023-05-23T21:51:03.883Z,13.26
2023-05-23T21:56:09.555Z,13.05
2023-05-23T22:01:15.169Z,12.95
2023-05-23T22:06:20.888Z,12.95
2023-05-23T22:11:27.587Z,12.95
2023-05-23T22:16:33.707Z,12.97
2023-05-23T22:21:39.639Z,12.81
2023-05-23T22:26:45.366Z,12.84
2023-05-23T22:31:51.063Z,12.79
2023-05-23T22:36:59.692Z,12.82
2023-05-23T22:42:04.251Z,12.81
2023-05-23T22:47:11.415Z,12.74
2023-05-23T22:52:17.541Z,12.73
2023-05-23T22:57:23.089Z,12.64
2023-05-23T23:02:28.661Z,12.43
2023-05-23T23:07:34.318Z,12.45
2023-05-23T23:12:40.096Z,12.63
2023-05-23T23:17:47.965Z,12.60
2023-05-23T23:22:53.905Z,12.62
2023-05-23T23:27:59.448Z,12.42
2023-05-23T23:33:05.136Z,12.42
2023-05-23T23:38:10.780Z,12.33
2023-05-23T23:43:16.451Z,12.35
2023-05-23T23:48:22.003Z,12.32
2023-05-23T23:53:27.701Z,12.25
2023-05-23T23:58:33.272Z,12.11
